Time;durP1;ratioP1;P1;durP2;ratioP2;P2;SDS_P1;SDS_P2;PMS_P1;PMS_P2;Temp;Humidity;BMP_temperature;BMP_pressure;BME280_temperature;BME280_humidity;BME280_pressure;Samples;Min_cycle;Max_cycle;Signal;HPM_P1;HPM_P2
2022/01/07 00:00:25;;;;;;;19.45;6.47;;;;;;;2.59;100.00;101428.63;4983048;28;20018;-48
2022/01/07 00:02:53;;;;;;;19.58;6.13;;;;;;;2.59;100.00;101420.72;4982988;28;20117;-46
2022/01/07 00:05:20;;;;;;;20.52;6.30;;;;;;;2.53;100.00;101410.56;4983094;28;20513;-46
2022/01/07 00:07:47;;;;;;;22.08;6.10;;;;;;;2.54;100.00;101409.59;4982070;28;20030;-47
2022/01/07 00:10:15;;;;;;;18.17;6.40;;;;;;;2.56;100.00;101414.78;4982776;28;20100;-46
2022/01/07 00:12:40;;;;;;;13.90;5.70;;;;;;;2.55;100.00;101410.47;4982775;28;20080;-45
2022/01/07 00:15:06;;;;;;;15.90;5.85;;;;;;;2.51;100.00;101411.59;4982703;28;20035;-46
2022/01/07 00:17:32;;;;;;;15.27;5.07;;;;;;;2.37;100.00;101400.09;4983248;28;20489;-47
2022/01/07 00:19:58;;;;;;;17.65;5.43;;;;;;;2.39;100.00;101387.69;4983508;28;20072;-44
2022/01/07 00:22:23;;;;;;;14.43;5.13;;;;;;;2.35;100.00;101395.88;4981302;28;20101;-44
2022/01/07 00:24:48;;;;;;;14.88;5.25;;;;;;;2.28;100.00;101379.59;4969473;28;20030;-44
2022/01/07 00:27:14;;;;;;;16.40;5.50;;;;;;;2.19;100.00;101383.66;4963519;28;20074;-44
2022/01/07 00:29:39;;;;;;;17.17;6.35;;;;;;;2.14;100.00;101379.56;4963031;28;20030;-44
2022/01/07 00:32:05;;;;;;;18.48;5.82;;;;;;;2.15;100.00;101368.09;4963568;28;20029;-46
2022/01/07 00:34:31;;;;;;;21.90;6.07;;;;;;;2.19;100.00;101375.75;4963021;28;20034;-44
2022/01/07 00:36:56;;;;;;;20.00;5.38;;;;;;;2.17;100.00;101374.13;4961780;28;20426;-48
2022/01/07 00:39:21;;;;;;;14.65;5.68;;;;;;;2.18;100.00;101368.75;4946183;28;20930;-46
2022/01/07 00:41:47;;;;;;;16.35;5.10;;;;;;;2.14;100.00;101359.38;4962197;28;20034;-48
2022/01/07 00:44:12;;;;;;;16.27;6.25;;;;;;;2.08;100.00;101345.72;4963430;28;20035;-45
2022/01/07 00:46:37;;;;;;;18.77;5.75;;;;;;;2.03;100.00;101340.72;4963162;28;20551;-48
2022/01/07 00:49:03;;;;;;;15.20;5.55;;;;;;;1.98;100.00;101333.09;4963035;28;20061;-45
2022/01/07 00:51:28;;;;;;;14.40;5.00;;;;;;;1.94;100.00;101331.59;4962037;28;20027;-45
2022/01/07 00:53:53;;;;;;;16.70;5.80;;;;;;;1.92;100.00;101324.72;4962240;28;20109;-44
2022/01/07 00:56:18;;;;;;;21.95;6.00;;;;;;;1.94;100.00;101321.06;4962324;28;20426;-46
2022/01/07 00:58:44;;;;;;;17.30;5.47;;;;;;;1.93;100.00;101316.72;4962483;28;20039;-44
2022/01/07 01:01:09;;;;;;;11.30;5.30;;;;;;;1.96;100.00;101310.44;4962823;28;20030;-45
2022/01/07 01:03:34;;;;;;;14.20;5.00;;;;;;;1.99;100.00;101304.97;4962483;28;20037;-48
2022/01/07 01:06:00;;;;;;;16.58;5.70;;;;;;;1.98;100.00;101301.47;4962453;28;20106;-46
2022/01/07 01:08:26;;;;;;;16.35;6.05;;;;;;;2.02;100.00;101295.09;4962901;28;20272;-45
2022/01/07 01:10:52;;;;;;;18.27;5.20;;;;;;;2.10;100.00;101291.13;4961606;28;20056;-45
2022/01/07 01:13:18;;;;;;;17.25;5.68;;;;;;;2.13;100.00;101285.69;4962378;28;20545;-46
2022/01/07 01:15:43;;;;;;;21.58;6.00;;;;;;;2.12;100.00;101300.66;4961850;28;20936;-47
2022/01/07 01:18:08;;;;;;;22.92;5.82;;;;;;;2.11;100.00;101291.03;4962316;28;20065;-46
2022/01/07 01:20:35;;;;;;;15.35;5.43;;;;;;;2.16;100.00;101291.59;4961729;28;20425;-47
2022/01/07 01:23:00;;;;;;;15.18;5.30;;;;;;;2.19;100.00;101286.16;4961697;28;20441;-45
2022/01/07 01:25:25;;;;;;;16.95;5.85;;;;;;;2.18;100.00;101281.81;4961972;28;20039;-46
2022/01/07 01:27:51;;;;;;;13.18;4.68;;;;;;;2.20;100.00;101281.72;4961491;28;20019;-45
2022/01/07 01:30:18;;;;;;;15.55;5.07;;;;;;;2.22;100.00;101266.66;4961988;28;20541;-46
2022/01/07 01:32:48;;;;;;;12.00;4.43;;;;;;;2.23;100.00;101266.56;4961580;28;20085;-44
2022/01/07 01:35:14;;;;;;;13.43;5.30;;;;;;;2.26;100.00;101272.56;4962135;28;20030;-44
2022/01/07 01:37:40;;;;;;;18.10;5.35;;;;;;;2.20;100.00;101253.56;4960693;28;20092;-47
2022/01/07 01:40:06;;;;;;;16.45;4.95;;;;;;;2.30;100.00;101263.53;4962276;28;20019;-48
2022/01/07 01:42:32;;;;;;;15.23;4.85;;;;;;;2.31;100.00;101252.91;4962221;28;20061;-46
2022/01/07 01:44:58;;;;;;;18.33;4.30;;;;;;;2.30;100.00;101240.66;4962169;28;20418;-44
2022/01/07 01:47:23;;;;;;;17.30;4.85;;;;;;;2.32;100.00;101233.50;4961457;28;20043;-44
2022/01/07 01:49:48;;;;;;;16.38;4.57;;;;;;;2.33;100.00;101235.19;4977535;28;20050;-48
2022/01/07 01:52:14;;;;;;;16.85;4.72;;;;;;;2.36;100.00;101252.59;4980152;28;20034;-48
2022/01/07 01:54:43;;;;;;;9.93;3.75;;;;;;;2.34;100.00;101242.16;4963672;28;20077;-46
2022/01/07 01:57:08;;;;;;;13.10;4.00;;;;;;;2.26;100.00;101246.22;4981244;28;20022;-45
2022/01/07 01:59:34;;;;;;;16.30;4.47;;;;;;;2.17;100.00;101235.34;4981851;28;20515;-49
2022/01/07 02:01:59;;;;;;;14.45;4.25;;;;;;;2.10;100.00;101228.75;4964145;28;20496;-43
2022/01/07 02:04:25;;;;;;;11.40;3.38;;;;;;;2.12;100.00;101223.38;4981422;28;20445;-46
2022/01/07 02:06:50;;;;;;;10.88;3.47;;;;;;;2.19;100.00;101225.53;4979185;28;20030;-44
2022/01/07 02:09:16;;;;;;;18.83;4.43;;;;;;;2.22;100.00;101235.88;4981250;28;20026;-44
2022/01/07 02:11:42;;;;;;;12.07;3.55;;;;;;;2.29;100.00;101232.84;4980321;28;20100;-47
2022/01/07 02:14:07;;;;;;;8.48;3.20;;;;;;;2.34;100.00;101228.13;4981047;28;20027;-47
2022/01/07 02:16:32;;;;;;;12.10;3.13;;;;;;;2.37;100.00;101212.13;4982107;28;20057;-43
2022/01/07 02:18:58;;;;;;;12.15;3.42;;;;;;;2.41;100.00;101226.78;4981733;28;20473;-44
2022/01/07 02:21:25;;;;;;;10.57;3.35;;;;;;;2.47;100.00;101220.28;4979766;28;20113;-44
2022/01/07 02:23:50;;;;;;;14.20;3.53;;;;;;;2.42;100.00;101233.75;4980510;28;20042;-47
2022/01/07 02:26:17;;;;;;;13.13;3.80;;;;;;;2.45;100.00;101222.19;4980293;28;20625;-44
2022/01/07 02:28:43;;;;;;;10.00;3.20;;;;;;;2.40;100.00;101212.75;4980715;28;20027;-43
2022/01/07 02:31:08;;;;;;;12.07;3.63;;;;;;;2.40;100.00;101204.00;4980916;28;20022;-46
2022/01/07 02:33:34;;;;;;;9.45;3.20;;;;;;;2.36;100.00;101198.09;4981071;28;20354;-45
2022/01/07 02:36:09;;;;;;;14.68;3.15;;;;;;;2.36;100.00;101194.59;4959879;28;20570;-47
2022/01/07 02:38:35;;;;;;;11.30;3.17;;;;;;;2.33;100.00;101203.56;4962186;28;20026;-44
2022/01/07 02:41:01;;;;;;;9.18;3.05;;;;;;;2.24;100.00;101201.50;4965056;28;20077;-47
2022/01/07 02:43:26;;;;;;;8.27;3.60;;;;;;;2.15;100.00;101194.19;4964883;28;20038;-47
2022/01/07 02:45:51;;;;;;;8.18;3.63;;;;;;;2.04;100.00;101192.25;4964935;28;20500;-48
2022/01/07 02:48:16;;;;;;;13.35;3.50;;;;;;;1.97;100.00;101201.47;4965261;28;20099;-45
2022/01/07 02:50:42;;;;;;;11.30;3.95;;;;;;;1.92;100.00;101187.75;4946638;28;20470;-46
2022/01/07 02:53:09;;;;;;;10.90;4.10;;;;;;;1.82;100.00;101188.34;4964632;28;20019;-47
2022/01/07 02:55:35;;;;;;;14.63;5.03;;;;;;;1.75;100.00;101186.16;4946553;28;20114;-47
2022/01/07 02:58:01;;;;;;;7.72;4.00;;;;;;;1.74;100.00;101180.06;4965751;28;20034;-44
2022/01/07 03:00:28;;;;;;;13.95;3.83;;;;;;;1.70;100.00;101168.03;4964617;28;20057;-46
2022/01/07 03:02:55;;;;;;;19.98;4.95;;;;;;;1.66;100.00;101185.81;4947219;28;20096;-44
2022/01/07 03:05:21;;;;;;;12.25;4.85;;;;;;;1.56;100.00;101166.28;4964986;28;20525;-43
2022/01/07 03:07:47;;;;;;;14.82;4.47;;;;;;;1.53;100.00;101170.84;4963234;28;20063;-45
2022/01/07 03:10:14;;;;;;;15.45;5.35;;;;;;;1.48;100.00;101160.63;4964411;28;20022;-46
2022/01/07 03:12:42;;;;;;;16.80;4.88;;;;;;;1.42;100.00;101150.47;4964627;28;20050;-45
2022/01/07 03:15:11;;;;;;;18.73;5.63;;;;;;;1.37;100.00;101148.13;4964199;28;20027;-45
2022/01/07 03:17:40;;;;;;;12.98;5.03;;;;;;;1.34;100.00;101150.09;4963533;28;20042;-45
2022/01/07 03:20:11;;;;;;;11.25;4.40;;;;;;;1.31;100.00;101140.63;4964725;28;20380;-44
2022/01/07 03:22:37;;;;;;;18.30;5.30;;;;;;;1.26;100.00;101140.88;4962684;28;20145;-45
2022/01/07 03:25:04;;;;;;;17.02;5.80;;;;;;;1.23;100.00;101150.75;4964368;28;20671;-44
2022/01/07 03:27:29;;;;;;;10.68;4.93;;;;;;;1.20;100.00;101140.41;4964350;28;20109;-46
2022/01/07 03:29:55;;;;;;;18.33;5.05;;;;;;;1.19;100.00;101136.09;4963953;28;20157;-46
2022/01/07 03:32:20;;;;;;;18.15;5.80;;;;;;;1.15;100.00;101150.38;4964244;28;20374;-47
2022/01/07 03:34:45;;;;;;;13.07;5.60;;;;;;;1.11;100.00;101149.72;4963581;28;20031;-44
2022/01/07 03:37:10;;;;;;;12.25;5.60;;;;;;;1.07;100.00;101143.78;4962879;28;20221;-44
2022/01/07 03:39:36;;;;;;;13.55;5.88;;;;;;;1.08;100.00;101147.25;4964214;28;20449;-45
2022/01/07 03:42:02;;;;;;;14.25;6.50;;;;;;;1.07;100.00;101142.94;4963931;28;20038;-47
2022/01/07 03:44:27;;;;;;;12.73;5.80;;;;;;;1.07;100.00;101137.66;4964089;28;20061;-46
2022/01/07 03:46:52;;;;;;;19.95;6.47;;;;;;;1.06;100.00;101131.56;4963536;28;20023;-46
2022/01/07 03:49:17;;;;;;;15.23;5.38;;;;;;;1.07;100.00;101124.53;4963786;28;20085;-47
2022/01/07 03:51:43;;;;;;;14.38;6.70;;;;;;;1.09;100.00;101114.78;4962913;28;20059;-44
2022/01/07 03:54:08;;;;;;;18.63;6.97;;;;;;;1.09;100.00;101118.25;4963482;28;20027;-45
2022/01/07 03:56:34;;;;;;;16.33;5.25;;;;;;;1.09;100.00;101118.25;4963270;28;20031;-46
2022/01/07 03:59:00;;;;;;;13.10;6.38;;;;;;;1.12;100.00;101119.81;4964497;28;20030;-44
2022/01/07 04:01:26;;;;;;;15.45;5.95;;;;;;;1.12;100.00;101114.56;4964014;28;20027;-47
2022/01/07 04:03:51;;;;;;;15.18;6.38;;;;;;;1.09;100.00;101107.72;4963525;28;20066;-44
2022/01/07 04:06:20;;;;;;;13.00;5.10;;;;;;;1.07;100.00;101108.72;4962228;28;20098;-47
2022/01/07 04:08:46;;;;;;;15.88;6.80;;;;;;;1.04;100.00;101090.53;4946331;28;20314;-45
2022/01/07 04:11:12;;;;;;;16.75;7.05;;;;;;;1.09;100.00;101099.84;4962270;28;20054;-47
2022/01/07 04:13:37;;;;;;;19.73;6.82;;;;;;;1.11;100.00;101089.22;4963477;28;20163;-47
2022/01/07 04:16:02;;;;;;;18.70;7.22;;;;;;;1.15;100.00;101097.75;4963881;28;20122;-47
2022/01/07 04:18:28;;;;;;;20.65;7.90;;;;;;;1.17;100.00;101101.13;4964043;28;20142;-45
2022/01/07 04:20:53;;;;;;;12.68;6.70;;;;;;;1.20;100.00;101100.97;4961761;28;21020;-45
2022/01/07 04:23:18;;;;;;;18.75;7.50;;;;;;;1.23;100.00;101098.97;4963461;28;20109;-48
2022/01/07 04:25:44;;;;;;;18.48;6.65;;;;;;;1.27;100.00;101105.75;4963137;28;20015;-46
2022/01/07 04:28:09;;;;;;;13.57;6.45;;;;;;;1.29;100.00;101095.13;4963126;28;20031;-48
2022/01/07 04:30:37;;;;;;;18.95;7.38;;;;;;;1.33;100.00;101090.53;4963027;28;20193;-48
2022/01/07 04:33:04;;;;;;;14.13;7.50;;;;;;;1.37;100.00;101087.59;4963577;28;20037;-47
2022/01/07 04:35:32;;;;;;;16.80;7.72;;;;;;;1.40;100.00;101090.03;4945445;28;20610;-45
2022/01/07 04:37:58;;;;;;;16.40;6.47;;;;;;;1.43;100.00;101095.13;4962952;28;20062;-45
2022/01/07 04:40:23;;;;;;;15.48;6.93;;;;;;;1.45;100.00;101089.75;4962819;28;20050;-47
2022/01/07 04:42:49;;;;;;;14.07;7.75;;;;;;;1.51;100.00;101089.38;4963035;28;20022;-48
2022/01/07 04:45:15;;;;;;;17.95;7.05;;;;;;;1.51;100.00;101092.00;4963094;28;20031;-44
2022/01/07 04:47:41;;;;;;;14.43;7.38;;;;;;;1.54;100.00;101081.28;4962329;28;20014;-46
2022/01/07 04:50:10;;;;;;;20.13;9.05;;;;;;;1.59;100.00;101088.88;4946024;28;20154;-44
2022/01/07 04:52:35;;;;;;;15.38;8.25;;;;;;;1.60;100.00;101080.91;4961608;28;20027;-45
2022/01/07 04:55:02;;;;;;;16.77;8.90;;;;;;;1.62;100.00;101080.78;4962748;28;20400;-45
2022/01/07 04:57:27;;;;;;;12.30;6.93;;;;;;;1.67;100.00;101074.28;4963519;28;20031;-44
2022/01/07 04:59:52;;;;;;;14.20;8.52;;;;;;;1.70;100.00;101072.41;4962898;28;20023;-47
2022/01/07 05:02:20;;;;;;;18.60;8.40;;;;;;;1.73;100.00;101070.44;4962018;28;20105;-44
2022/01/07 05:04:46;;;;;;;16.60;9.20;;;;;;;1.78;100.00;101067.47;4945186;28;20015;-44
2022/01/07 05:07:11;;;;;;;13.25;7.18;;;;;;;1.78;100.00;101060.44;4944178;28;20097;-47
2022/01/07 05:09:36;;;;;;;21.35;8.63;;;;;;;1.81;100.00;101064.66;4962812;28;20038;-45
2022/01/07 05:12:03;;;;;;;15.73;9.88;;;;;;;1.86;100.00;101055.50;4945533;28;20034;-43
2022/01/07 05:14:28;;;;;;;16.60;10.65;;;;;;;1.90;100.00;101057.94;4963144;28;20022;-48
2022/01/07 05:16:53;;;;;;;20.35;9.90;;;;;;;1.92;100.00;101056.06;4962443;28;20041;-45
2022/01/07 05:19:19;;;;;;;13.40;8.70;;;;;;;1.92;100.00;101054.28;4962804;28;20063;-44
2022/01/07 05:21:44;;;;;;;18.55;9.40;;;;;;;1.96;100.00;101049.66;4961249;28;20031;-44
2022/01/07 05:24:09;;;;;;;20.27;9.43;;;;;;;1.97;100.00;101057.47;4962045;28;20050;-43
2022/01/07 05:26:35;;;;;;;21.08;9.50;;;;;;;1.99;100.00;101060.00;4961566;28;20066;-45
2022/01/07 05:29:00;;;;;;;20.48;10.13;;;;;;;2.02;100.00;101063.28;4963196;28;20031;-45
2022/01/07 05:31:26;;;;;;;17.67;9.38;;;;;;;2.05;100.00;101073.63;4962097;28;20069;-45
2022/01/07 05:33:53;;;;;;;17.15;9.38;;;;;;;2.08;100.00;101056.75;4962152;28;20254;-48
2022/01/07 05:36:20;;;;;;;16.90;9.50;;;;;;;2.08;100.00;101059.38;4961066;28;20128;-48
2022/01/07 05:38:46;;;;;;;20.88;10.77;;;;;;;2.13;100.00;101065.19;4962113;28;20110;-45
2022/01/07 05:41:11;;;;;;;18.23;9.68;;;;;;;2.17;100.00;101071.09;4961832;28;20106;-48
2022/01/07 05:43:37;;;;;;;14.90;8.38;;;;;;;2.19;100.00;101053.41;4961190;28;20089;-47
2022/01/07 05:46:02;;;;;;;21.30;9.57;;;;;;;2.20;100.00;101048.03;4962613;28;20462;-45
2022/01/07 05:48:28;;;;;;;20.67;9.85;;;;;;;2.23;100.00;101052.25;4962734;28;20034;-46
2022/01/07 05:50:53;;;;;;;19.48;11.15;;;;;;;2.26;100.00;101045.94;4960433;28;20030;-46
2022/01/07 05:53:19;;;;;;;20.10;11.75;;;;;;;2.29;100.00;101048.38;4962282;28;20025;-52
2022/01/07 05:55:44;;;;;;;21.75;11.45;;;;;;;2.31;100.00;101051.72;4961058;28;20034;-44
2022/01/07 05:58:09;;;;;;;22.35;10.65;;;;;;;2.35;100.00;101040.06;4962145;28;20023;-45
2022/01/07 06:00:35;;;;;;;20.70;10.82;;;;;;;2.40;100.00;101040.59;4961702;28;20026;-47
2022/01/07 06:03:00;;;;;;;16.27;10.55;;;;;;;2.42;100.00;101043.97;4961934;28;20058;-48
2022/01/07 06:05:25;;;;;;;19.90;10.23;;;;;;;2.42;100.00;101044.78;4961199;28;20098;-49
2022/01/07 06:07:50;;;;;;;19.90;10.57;;;;;;;2.43;100.00;101041.22;4961942;28;20185;-47
2022/01/07 06:10:16;;;;;;;17.60;11.32;;;;;;;2.47;100.00;101049.75;4961846;28;20513;-50
2022/01/07 06:12:41;;;;;;;17.90;8.90;;;;;;;2.49;100.00;101050.50;4962592;28;20189;-46
2022/01/07 06:15:07;;;;;;;20.00;11.95;;;;;;;2.51;100.00;101051.25;4966342;28;20030;-45
2022/01/07 06:17:33;;;;;;;17.73;10.38;;;;;;;2.57;100.00;101058.75;4965892;28;20097;-45
2022/01/07 06:19:58;;;;;;;21.63;10.68;;;;;;;2.59;100.00;101050.72;4966408;28;20023;-47
2022/01/07 06:22:24;;;;;;;24.10;10.60;;;;;;;2.63;100.00;101051.34;4963679;28;20031;-48
2022/01/07 06:24:49;;;;;;;16.38;9.98;;;;;;;2.65;100.00;101049.47;4965011;28;20071;-46
2022/01/07 06:27:14;;;;;;;21.80;10.65;;;;;;;2.60;100.00;101041.88;4965482;28;20402;-46
2022/01/07 06:29:40;;;;;;;20.42;10.48;;;;;;;2.70;100.00;101047.34;4965576;28;20142;-47
2022/01/07 06:32:06;;;;;;;21.40;10.73;;;;;;;2.70;100.00;101050.84;4965909;28;20022;-46
2022/01/07 06:34:32;;;;;;;20.67;10.93;;;;;;;2.68;100.00;101043.97;4965912;28;20042;-47
2022/01/07 06:36:58;;;;;;;20.33;10.73;;;;;;;2.69;100.00;101040.41;4964465;28;20023;-49
2022/01/07 06:39:24;;;;;;;22.58;11.23;;;;;;;2.74;100.00;101043.56;4966319;28;20023;-44
2022/01/07 06:41:51;;;;;;;16.92;10.55;;;;;;;2.76;100.00;101031.13;4964243;28;20033;-47
2022/01/07 06:44:17;;;;;;;25.33;11.88;;;;;;;2.78;100.00;101034.47;4965626;28;20042;-45
2022/01/07 06:46:42;;;;;;;18.40;9.25;;;;;;;2.76;100.00;101039.88;4964898;28;20030;-44
2022/01/07 06:49:07;;;;;;;20.08;10.50;;;;;;;2.77;100.00;101038.91;4965782;28;20030;-49
2022/01/07 06:51:33;;;;;;;23.20;11.70;;;;;;;2.79;100.00;101039.66;4964105;28;20112;-45
2022/01/07 06:53:59;;;;;;;23.27;10.32;;;;;;;2.84;100.00;101041.16;4965769;28;20110;-49
2022/01/07 06:56:25;;;;;;;24.27;11.07;;;;;;;2.79;100.00;101037.00;4975048;28;20062;-50
2022/01/07 06:58:50;;;;;;;20.25;9.95;;;;;;;2.86;100.00;101032.16;4984359;28;20093;-47
2022/01/07 07:01:16;;;;;;;23.73;11.68;;;;;;;2.90;100.00;101046.84;4984363;28;20512;-45
2022/01/07 07:03:41;;;;;;;21.35;11.05;;;;;;;2.91;100.00;101047.69;4984657;28;20034;-49
2022/01/07 07:06:07;;;;;;;20.65;11.60;;;;;;;2.95;100.00;101046.50;4983970;28;20068;-44
2022/01/07 07:08:33;;;;;;;21.50;10.95;;;;;;;2.94;100.00;101048.31;4984612;28;20026;-46
2022/01/07 07:10:58;;;;;;;20.15;11.43;;;;;;;2.96;100.00;101051.69;4982844;28;20443;-45
2022/01/07 07:13:23;;;;;;;24.55;12.13;;;;;;;2.99;100.00;101062.03;4984386;28;20040;-45
2022/01/07 07:15:49;;;;;;;18.35;10.73;;;;;;;3.00;100.00;101054.94;4983942;28;20033;-45
2022/01/07 07:18:14;;;;;;;23.85;11.20;;;;;;;3.03;100.00;101053.91;4966288;28;20030;-44
2022/01/07 07:20:40;;;;;;;24.75;11.38;;;;;;;3.04;100.00;101055.56;4982559;28;20414;-44
2022/01/07 07:23:05;;;;;;;18.75;10.68;;;;;;;3.08;100.00;101054.41;4983865;28;20112;-47
2022/01/07 07:25:31;;;;;;;21.02;10.82;;;;;;;3.06;100.00;101053.69;4983037;28;20030;-47
2022/01/07 07:27:56;;;;;;;25.70;11.38;;;;;;;3.09;100.00;101058.72;4983841;28;20113;-48
2022/01/07 07:30:21;;;;;;;19.95;10.10;;;;;;;3.11;100.00;101062.13;4984168;28;20034;-44
2022/01/07 07:32:48;;;;;;;19.52;9.98;;;;;;;3.10;100.00;101061.25;4977577;28;20105;-46
2022/01/07 07:37:46;;;;;;;20.83;10.93;;;;;;;3.08;100.00;101055.25;4963639;28;20042;-45
2022/01/07 07:40:11;;;;;;;21.15;10.90;;;;;;;3.10;100.00;101055.97;4964007;28;20030;-43
2022/01/07 07:42:38;;;;;;;21.42;10.75;;;;;;;3.10;100.00;101044.59;4963950;28;20035;-43
2022/01/07 07:45:05;;;;;;;24.73;9.88;;;;;;;3.13;100.00;101041.75;4964444;28;20022;-45
2022/01/07 07:47:30;;;;;;;23.50;11.85;;;;;;;3.14;100.00;101035.50;4964766;28;20023;-45
2022/01/07 07:49:55;;;;;;;23.35;11.63;;;;;;;3.14;100.00;101032.84;4963014;28;20034;-42
2022/01/07 07:52:21;;;;;;;28.77;12.40;;;;;;;3.14;100.00;101033.72;4963327;28;20069;-44
2022/01/07 07:54:46;;;;;;;25.83;11.57;;;;;;;3.16;100.00;101037.09;4962529;28;20038;-44
2022/01/07 07:57:11;;;;;;;25.42;13.05;;;;;;;3.18;100.00;101042.25;4963964;28;20477;-43
2022/01/07 07:59:37;;;;;;;23.83;10.80;;;;;;;3.18;100.00;101029.91;4963740;28;20030;-47
2022/01/07 08:02:02;;;;;;;24.75;12.98;;;;;;;3.18;100.00;101037.81;4964021;28;20114;-42
2022/01/07 08:04:29;;;;;;;22.80;12.32;;;;;;;3.22;100.00;101043.72;4963798;28;20023;-43
2022/01/07 08:06:54;;;;;;;24.17;13.55;;;;;;;3.25;100.00;101051.44;4962058;28;20027;-47
2022/01/07 08:09:20;;;;;;;24.42;12.48;;;;;;;3.29;100.00;101049.41;4964086;28;20054;-43
2022/01/07 08:11:50;;;;;;;19.35;11.27;;;;;;;3.33;100.00;101053.53;4945500;28;20021;-44
2022/01/07 08:17:01;;;;;;;33.78;12.25;;;;;;;3.38;100.00;101053.19;4964435;28;20041;-46
2022/01/07 08:19:26;;;;;;;20.63;11.05;;;;;;;3.39;100.00;101044.31;4963359;28;20031;-44
2022/01/07 08:21:51;;;;;;;27.52;12.55;;;;;;;3.38;100.00;101037.34;4960677;28;20623;-45
2022/01/07 08:24:17;;;;;;;28.77;11.23;;;;;;;3.39;100.00;101037.25;4963461;28;20521;-43
2022/01/07 08:26:42;;;;;;;23.88;11.98;;;;;;;3.40;100.00;101038.09;4962416;28;20163;-43
2022/01/07 08:29:10;;;;;;;27.33;11.95;;;;;;;3.40;100.00;101036.31;4963492;28;20023;-42
2022/01/07 08:36:47;;;;;;;23.52;11.20;;;;;;;3.47;100.00;101050.75;4961828;28;20109;-45
2022/01/07 08:39:13;;;;;;;28.88;12.57;;;;;;;3.44;100.00;101042.19;4963510;28;20035;-43
2022/01/07 08:41:39;;;;;;;25.45;11.52;;;;;;;3.49;100.00;101046.19;4969458;28;20023;-45
2022/01/07 08:44:06;;;;;;;25.23;11.80;;;;;;;3.50;100.00;101049.69;4970553;28;20035;-44
2022/01/07 08:46:32;;;;;;;30.20;11.27;;;;;;;3.51;100.00;101051.34;4968461;28;20027;-45
2022/01/07 08:48:57;;;;;;;21.92;11.55;;;;;;;3.53;100.00;101058.22;4963073;28;20201;-47
2022/01/07 08:51:23;;;;;;;22.38;10.48;;;;;;;3.56;100.00;101054.50;4944019;28;20022;-43
2022/01/07 08:53:48;;;;;;;23.98;11.70;;;;;;;3.56;100.00;101057.16;4963105;28;20065;-45
2022/01/07 08:56:16;;;;;;;24.05;11.65;;;;;;;3.61;100.00;101067.41;4962242;28;20038;-44
2022/01/07 08:58:42;;;;;;;27.33;12.13;;;;;;;3.58;100.00;101057.03;4962396;28;20034;-45
2022/01/07 09:01:07;;;;;;;24.45;11.50;;;;;;;3.57;100.00;101064.13;4962181;28;20023;-44
2022/01/07 09:03:32;;;;;;;20.33;10.85;;;;;;;3.53;100.00;101058.22;4962724;28;20031;-43
2022/01/07 09:05:58;;;;;;;21.70;12.00;;;;;;;3.54;100.00;101065.19;4961794;28;20050;-44
2022/01/07 09:08:23;;;;;;;31.73;11.63;;;;;;;3.55;100.00;101048.41;4962672;28;20034;-46
2022/01/07 09:10:49;;;;;;;27.00;13.10;;;;;;;3.52;100.00;101047.78;4961756;28;20057;-44
2022/01/07 09:13:14;;;;;;;31.50;12.10;;;;;;;3.57;100.00;101048.28;4963282;28;20409;-44
2022/01/07 09:15:39;;;;;;;27.70;10.82;;;;;;;3.61;100.00;101047.09;4968740;28;20077;-44
2022/01/07 09:18:10;;;;;;;26.77;10.77;;;;;;;3.61;100.00;101043.63;4981440;28;20512;-44
2022/01/07 09:20:43;;;;;;;28.70;10.80;;;;;;;3.61;100.00;101031.25;4979938;28;20026;-45
2022/01/07 09:23:10;;;;;;;24.98;12.10;;;;;;;3.60;100.00;101039.28;4975381;28;20053;-42
2022/01/07 09:25:36;;;;;;;25.92;11.20;;;;;;;3.70;100.00;101038.53;4979171;28;20030;-43
2022/01/07 09:28:02;;;;;;;28.98;9.98;;;;;;;3.78;100.00;101040.59;4980749;28;20045;-43
2022/01/07 09:30:28;;;;;;;27.00;11.63;;;;;;;3.84;100.00;101049.88;4981502;28;20457;-43
2022/01/07 09:32:53;;;;;;;17.73;10.00;;;;;;;3.87;100.00;101041.72;4980348;28;20026;-46
2022/01/07 09:35:19;;;;;;;18.40;9.90;;;;;;;3.94;100.00;101040.31;4979922;28;20034;-43
2022/01/07 09:37:44;;;;;;;22.20;9.88;;;;;;;3.97;100.00;101040.09;4980150;28;20136;-46
2022/01/07 09:40:11;;;;;;;22.38;10.32;;;;;;;3.98;100.00;101041.78;4980864;28;20121;-42
2022/01/07 09:42:37;;;;;;;29.00;10.50;;;;;;;3.97;100.00;101039.25;4980935;28;20026;-44
2022/01/07 09:45:04;;;;;;;22.02;10.07;;;;;;;3.96;100.00;101050.78;4981285;28;20084;-45
2022/01/07 09:47:29;;;;;;;23.38;8.63;;;;;;;3.96;100.00;101024.34;4980939;28;20726;-44
2022/01/07 09:49:55;;;;;;;18.48;8.90;;;;;;;3.98;100.00;101040.94;4977453;28;20029;-42
2022/01/07 09:52:20;;;;;;;28.88;10.18;;;;;;;4.01;100.00;101017.78;4980760;28;20394;-42
2022/01/07 09:54:47;;;;;;;22.90;10.13;;;;;;;4.04;100.00;101038.69;4980278;28;20085;-46
2022/01/07 09:57:13;;;;;;;18.67;8.70;;;;;;;4.05;100.00;101037.72;4980705;28;20105;-45
2022/01/07 09:59:39;;;;;;;23.25;8.68;;;;;;;4.13;100.00;101026.59;4963434;28;20029;-47
2022/01/07 10:02:07;;;;;;;22.42;8.73;;;;;;;4.22;100.00;101028.53;4965575;28;20030;-46
2022/01/07 10:04:36;;;;;;;15.45;7.82;;;;;;;4.39;100.00;101029.06;4962192;28;20110;-45
2022/01/07 10:07:32;;;;;;;23.95;8.60;;;;;;;4.49;100.00;101035.34;4980803;28;20471;-42
2022/01/07 10:09:58;;;;;;;22.88;9.00;;;;;;;4.42;100.00;101040.25;4972974;28;20124;-46
2022/01/07 10:12:25;;;;;;;24.20;10.40;;;;;;;4.32;100.00;101039.25;4981545;28;20113;-43
2022/01/07 10:15:13;;;;;;;21.58;9.30;;;;;;;4.26;100.00;101030.00;4978654;28;20030;-44
2022/01/07 10:17:40;;;;;;;20.85;9.45;;;;;;;4.17;100.00;101019.25;4978584;28;20185;-45
2022/01/07 10:20:06;;;;;;;23.10;9.43;;;;;;;4.17;100.00;101012.16;4979778;28;20026;-43
2022/01/07 10:22:53;;;;;;;25.05;9.05;;;;;;;4.21;100.00;101013.63;4980604;28;20126;-43
2022/01/07 10:25:28;;;;;;;18.35;8.48;;;;;;;4.31;100.00;101021.69;4956882;28;20473;-44
2022/01/07 10:28:00;;;;;;;20.88;8.18;;;;;;;4.38;100.00;101022.94;4980659;28;20113;-42
2022/01/07 10:30:26;;;;;;;19.58;7.80;;;;;;;4.45;100.00;101016.22;4980319;28;20197;-43
2022/01/07 10:32:55;;;;;;;19.13;8.13;;;;;;;4.51;100.00;101008.75;4979553;28;20387;-44
2022/01/07 10:35:23;;;;;;;21.80;8.32;;;;;;;4.54;100.00;101006.72;4979868;28;20453;-45
2022/01/07 10:37:53;;;;;;;17.45;7.90;;;;;;;4.62;100.00;101016.72;4980199;28;20022;-45
2022/01/07 10:40:39;;;;;;;17.88;7.05;;;;;;;4.72;100.00;101007.13;4980509;28;20497;-46
2022/01/07 10:43:11;;;;;;;18.92;7.15;;;;;;;4.78;100.00;101011.09;4980549;28;20026;-44
2022/01/07 10:45:38;;;;;;;17.10;7.97;;;;;;;4.81;100.00;100994.97;4972125;28;20042;-44
2022/01/07 10:48:03;;;;;;;18.02;6.35;;;;;;;4.92;100.00;101008.22;4972371;28;20538;-45
2022/01/07 10:50:29;;;;;;;21.85;6.70;;;;;;;5.00;100.00;101012.88;4971156;28;20038;-45
2022/01/07 10:53:29;;;;;;;17.05;6.43;;;;;;;4.97;100.00;100998.09;4970713;28;20031;-44
2022/01/07 10:56:00;;;;;;;20.23;6.53;;;;;;;4.88;100.00;101003.28;4978436;28;20452;-46
2022/01/07 10:58:26;;;;;;;18.70;6.43;;;;;;;4.86;100.00;100990.16;4980963;28;20292;-43
2022/01/07 11:00:52;;;;;;;16.23;5.50;;;;;;;4.93;100.00;100985.22;4982853;28;20034;-44
2022/01/07 11:03:17;;;;;;;17.77;4.82;;;;;;;5.08;100.00;100983.19;4984144;28;20088;-44
2022/01/07 11:05:42;;;;;;;15.75;5.25;;;;;;;5.24;100.00;100983.63;4983169;28;20019;-46
2022/01/07 11:08:08;;;;;;;14.95;5.00;;;;;;;5.24;100.00;100994.22;4977553;28;20366;-46
2022/01/07 11:10:33;;;;;;;18.33;5.43;;;;;;;5.28;100.00;100973.63;4963856;28;20027;-44
2022/01/07 11:13:00;;;;;;;14.43;4.47;;;;;;;5.36;100.00;100989.75;4965211;28;20037;-44
2022/01/07 11:15:25;;;;;;;10.90;4.47;;;;;;;5.40;100.00;100999.13;4964603;28;20030;-43
2022/01/07 11:17:50;;;;;;;17.75;5.25;;;;;;;5.38;100.00;100982.50;4946558;28;20050;-43
2022/01/07 11:20:24;;;;;;;14.57;5.25;;;;;;;5.40;100.00;100986.72;4964268;28;20027;-46